createdAt,value
2022-07-30T00:00:39.200Z,13930.17
2022-07-30T00:03:06.013Z,13916.93
2022-07-30T00:05:32.662Z,13924.50
2022-07-30T00:07:59.449Z,13913.15
2022-07-30T00:10:27.195Z,13895.07
2022-07-30T00:12:53.964Z,13922.80
2022-07-30T00:15:20.686Z,13917.03
2022-07-30T00:17:47.742Z,13916.68
2022-07-30T00:20:16.805Z,13942.44
2022-07-30T00:22:45.321Z,13913.08
2022-07-30T00:25:12.078Z,13920.84
2022-07-30T00:27:39.042Z,13900.34
2022-07-30T00:30:06.385Z,13909.80
2022-07-30T00:32:34.702Z,13934.66
2022-07-30T00:35:01.469Z,13942.27
2022-07-30T00:37:28.218Z,13928.15
2022-07-30T00:39:54.978Z,13925.39
2022-07-30T00:42:21.800Z,13932.99
2022-07-30T00:44:48.776Z,13915.29
2022-07-30T00:47:17.862Z,13916.05
2022-07-30T00:49:44.742Z,13902.54
2022-07-30T00:52:12.067Z,13894.94
2022-07-30T00:54:38.803Z,13915.91
2022-07-30T00:57:05.551Z,13914.88
2022-07-30T00:59:32.324Z,13936.29
2022-07-30T01:01:59.184Z,13918.50
2022-07-30T01:04:25.947Z,13879.61
2022-07-30T01:06:52.647Z,13901.62
2022-07-30T01:09:19.386Z,13911.86
2022-07-30T01:11:46.139Z,13878.22
2022-07-30T01:14:13.185Z,13868.96
2022-07-30T01:16:42.756Z,13918.50
2022-07-30T01:19:26.774Z,13922.35
2022-07-30T01:22:24.318Z,13935.19
2022-07-30T01:25:10.084Z,13952.79
2022-07-30T01:27:44.114Z,13948.97
2022-07-30T01:30:12.759Z,13918.93
2022-07-30T01:32:45.070Z,13882.56
2022-07-30T01:35:14.550Z,13906.33
2022-07-30T01:37:44.640Z,13954.81
2022-07-30T01:40:12.884Z,13984.76
2022-07-30T01:42:41.124Z,13973.23
2022-07-30T01:45:11.501Z,13980.04
2022-07-30T01:47:42.690Z,13951.97
2022-07-30T01:50:13.013Z,13938.04
2022-07-30T01:52:43.520Z,13966.30
2022-07-30T01:55:18.356Z,14011.46
2022-07-30T01:57:48.301Z,13972.40
2022-07-30T02:00:16.984Z,13976.71
2022-07-30T02:02:44.991Z,13959.56
2022-07-30T02:05:12.346Z,13953.10
2022-07-30T02:07:44.323Z,13969.73
2022-07-30T02:10:43.292Z,13963.37
2022-07-30T02:13:15.140Z,13953.81
2022-07-30T02:15:43.893Z,13995.75
2022-07-30T02:18:18.283Z,14032.00
2022-07-30T02:21:11.485Z,14034.55
2022-07-30T02:23:44.277Z,14058.96
2022-07-30T02:26:18.739Z,14112.59
2022-07-30T02:28:49.803Z,14145.92
2022-07-30T02:31:22.730Z,14170.77
2022-07-30T02:33:53.461Z,14197.39
2022-07-30T02:36:20.729Z,14182.11
2022-07-30T02:38:51.292Z,14174.67
2022-07-30T02:41:22.164Z,14170.11
2022-07-30T02:43:52.088Z,14183.41
2022-07-30T02:46:24.521Z,14203.10
2022-07-30T02:48:55.356Z,14172.22
2022-07-30T02:51:24.913Z,14170.45
2022-07-30T02:53:55.089Z,14147.26
2022-07-30T02:56:24.191Z,14125.41
2022-07-30T02:58:53.187Z,14104.84
2022-07-30T03:01:24.951Z,14090.53
2022-07-30T03:03:54.239Z,14105.61
2022-07-30T03:06:23.425Z,14088.03
2022-07-30T03:08:51.952Z,14097.50
2022-07-30T03:11:20.982Z,14076.60
2022-07-30T03:13:47.971Z,14052.04
2022-07-30T03:16:18.785Z,14025.24
2022-07-30T03:18:48.199Z,14064.85
2022-07-30T03:21:19.240Z,14075.94
2022-07-30T03:23:49.601Z,14087.06
2022-07-30T03:26:20.881Z,14009.37
2022-07-30T03:28:49.229Z,13994.08
2022-07-30T03:31:17.231Z,13956.10
2022-07-30T03:33:47.588Z,13942.72
2022-07-30T03:36:15.760Z,13949.79
2022-07-30T03:38:44.546Z,13899.70
2022-07-30T03:41:12.489Z,13855.07
2022-07-30T03:43:40.966Z,13903.73
2022-07-30T03:46:10.266Z,13945.29
2022-07-30T03:48:39.051Z,13930.76
2022-07-30T03:51:07.880Z,13919.20
2022-07-30T03:53:35.603Z,13939.58
2022-07-30T03:56:03.784Z,13908.77
2022-07-30T03:58:35.853Z,13910.25
2022-07-30T04:01:03.286Z,13916.06
2022-07-30T04:03:32.748Z,13923.20
2022-07-30T04:06:00.493Z,13929.18
2022-07-30T04:08:30.683Z,13946.96
2022-07-30T04:10:57.967Z,13951.62
2022-07-30T04:13:44.677Z,13938.18
2022-07-30T04:16:40.050Z,13925.86
2022-07-30T04:19:12.415Z,13905.34
2022-07-30T04:21:42.373Z,13935.71
2022-07-30T04:24:11.390Z,13922.84
2022-07-30T04:26:40.078Z,13866.53
2022-07-30T04:29:13.792Z,13865.69
2022-07-30T04:31:45.920Z,13881.34
2022-07-30T04:34:16.146Z,13873.24
2022-07-30T04:36:43.814Z,13860.49
2022-07-30T04:39:11.324Z,13898.81
2022-07-30T04:41:49.526Z,13919.47
2022-07-30T04:44:20.030Z,13932.78
2022-07-30T04:46:48.097Z,13873.97
2022-07-30T04:49:17.547Z,13890.17
2022-07-30T04:51:45.206Z,13887.24
2022-07-30T04:54:16.176Z,13901.19
2022-07-30T04:56:50.540Z,13919.55
2022-07-30T04:59:25.419Z,13925.24
2022-07-30T05:01:56.350Z,13876.83
2022-07-30T05:04:25.257Z,13869.90
2022-07-30T05:06:53.939Z,13896.79
2022-07-30T05:09:21.419Z,13910.05
2022-07-30T05:11:53.333Z,13924.76
2022-07-30T05:14:21.392Z,13938.82
2022-07-30T05:16:48.449Z,13952.46
2022-07-30T05:19:15.209Z,13963.16
2022-07-30T05:21:42.061Z,13974.55
2022-07-30T05:24:08.900Z,13958.47
2022-07-30T05:26:35.753Z,13942.41
2022-07-30T05:29:04.043Z,13934.39
2022-07-30T05:31:34.207Z,13964.50
2022-07-30T05:34:03.614Z,13969.10
2022-07-30T05:36:31.215Z,13955.92
2022-07-30T05:38:57.986Z,13916.65
2022-07-30T05:41:32.815Z,13887.84
2022-07-30T05:44:01.116Z,13882.46
2022-07-30T05:46:28.709Z,13901.16
2022-07-30T05:48:55.775Z,13899.62
2022-07-30T05:51:22.669Z,13907.77
2022-07-30T05:53:49.930Z,13887.73
2022-07-30T05:56:17.132Z,13887.73
2022-07-30T05:58:43.962Z,13869.17
2022-07-30T06:01:10.953Z,13905.62
2022-07-30T06:03:39.042Z,13926.72
2022-07-30T06:06:07.635Z,13948.53
2022-07-30T06:08:35.356Z,13915.73
2022-07-30T06:11:02.924Z,13939.96
2022-07-30T06:13:29.631Z,13929.92
2022-07-30T06:15:56.594Z,13885.83
2022-07-30T06:18:23.617Z,13873.83
2022-07-30T06:20:54.051Z,13901.72
2022-07-30T06:23:21.671Z,13906.97
2022-07-30T06:25:49.925Z,13914.86
2022-07-30T06:28:37.135Z,13924.36
2022-07-30T06:31:04.838Z,13851.68
2022-07-30T06:33:31.879Z,13729.40
2022-07-30T06:35:59.038Z,13579.50
2022-07-30T06:38:25.754Z,13507.69
2022-07-30T06:40:53.669Z,13397.19
2022-07-30T06:43:20.503Z,13291.67
2022-07-30T06:45:47.477Z,13300.39
2022-07-30T06:48:14.226Z,13293.41
2022-07-30T06:50:41.144Z,13298.78
2022-07-30T06:53:08.402Z,13306.71
2022-07-30T06:55:35.237Z,13327.98
2022-07-30T06:58:02.195Z,13326.93
2022-07-30T07:00:29.220Z,13331.51
2022-07-30T07:02:55.910Z,13334.74
2022-07-30T07:05:22.633Z,13287.55
2022-07-30T07:07:58.623Z,13259.77
2022-07-30T07:10:27.110Z,13252.80
2022-07-30T07:12:54.150Z,13247.37
2022-07-30T07:15:22.515Z,13271.47
2022-07-30T07:18:03.643Z,13261.40
2022-07-30T07:20:30.681Z,13250.19
2022-07-30T07:22:57.577Z,13206.44
2022-07-30T07:25:24.925Z,13247.24
2022-07-30T07:28:11.826Z,13278.96
2022-07-30T07:30:39.182Z,13319.00
2022-07-30T07:33:05.906Z,13307.12
2022-07-30T07:35:48.972Z,13310.50
2022-07-30T07:38:18.351Z,13307.90
2022-07-30T07:40:46.205Z,13302.48
2022-07-30T07:43:13.152Z,13266.90
2022-07-30T07:45:40.578Z,13249.77
2022-07-30T07:48:10.298Z,13269.31
2022-07-30T07:50:37.154Z,13275.48
2022-07-30T07:53:04.282Z,13251.38
2022-07-30T07:55:31.048Z,13245.75
2022-07-30T07:57:59.905Z,13231.56
2022-07-30T08:00:26.735Z,13194.00
2022-07-30T08:02:53.665Z,13187.85
2022-07-30T08:05:20.534Z,13196.90
2022-07-30T08:07:47.346Z,13219.24
2022-07-30T08:10:14.096Z,13177.45
2022-07-30T08:12:41.407Z,13210.53
2022-07-30T08:15:08.936Z,13187.47
2022-07-30T08:17:46.953Z,13159.71
2022-07-30T08:20:15.353Z,13167.09
2022-07-30T08:22:43.119Z,13160.55
2022-07-30T08:25:10.441Z,13177.32
2022-07-30T08:27:37.967Z,13157.43
2022-07-30T08:30:09.387Z,13163.79
2022-07-30T08:32:36.456Z,13173.18
2022-07-30T08:35:07.247Z,13217.59
2022-07-30T08:37:34.457Z,13200.33
2022-07-30T08:40:01.488Z,13196.22
2022-07-30T08:42:29.205Z,13144.23
2022-07-30T08:44:56.891Z,13166.43
2022-07-30T08:47:31.257Z,13222.81
2022-07-30T08:49:59.246Z,13181.47
2022-07-30T08:52:26.162Z,13165.36
2022-07-30T08:54:53.098Z,13217.75
2022-07-30T08:57:20.856Z,13223.54
2022-07-30T08:59:59.082Z,13227.63
2022-07-30T09:02:31.249Z,13244.85
2022-07-30T09:04:58.400Z,13235.49
2022-07-30T09:07:25.289Z,13231.78
2022-07-30T09:09:52.031Z,13262.18
2022-07-30T09:12:45.006Z,13279.44
2022-07-30T09:15:19.047Z,13318.62
2022-07-30T09:18:00.251Z,13308.16
2022-07-30T09:20:33.956Z,13277.13
2022-07-30T09:23:02.751Z,13309.75
2022-07-30T09:25:47.916Z,13299.83
2022-07-30T09:28:16.652Z,13306.60
2022-07-30T09:31:01.868Z,13314.87
2022-07-30T09:33:38.528Z,13285.68
2022-07-30T09:36:10.792Z,13285.17
2022-07-30T09:38:52.406Z,13281.71
2022-07-30T09:41:38.932Z,13307.08
2022-07-30T09:44:06.501Z,13326.13
2022-07-30T09:46:48.157Z,13316.59
2022-07-30T09:49:17.888Z,13305.61
2022-07-30T09:51:54.482Z,13269.34
2022-07-30T09:54:25.774Z,13416.52
2022-07-30T09:57:07.033Z,13409.91
2022-07-30T09:59:52.228Z,13417.17
2022-07-30T10:02:20.621Z,13414.73
2022-07-30T10:04:48.508Z,13438.45
2022-07-30T10:07:25.720Z,13403.17
2022-07-30T10:09:53.275Z,13410.28
2022-07-30T10:12:24.225Z,13408.97
2022-07-30T10:14:54.017Z,13460.72
2022-07-30T10:17:22.672Z,13464.33
2022-07-30T10:19:49.598Z,13425.80
2022-07-30T10:22:17.000Z,13460.48
2022-07-30T10:24:46.091Z,13480.70
2022-07-30T10:27:13.559Z,13475.86
2022-07-30T10:29:42.674Z,13438.10
2022-07-30T10:32:10.389Z,13457.54
2022-07-30T10:34:42.394Z,13453.31
2022-07-30T10:37:13.141Z,13458.70
2022-07-30T10:39:50.604Z,13421.37
2022-07-30T10:42:39.099Z,13437.92
2022-07-30T10:45:19.135Z,13461.58
2022-07-30T10:47:50.147Z,13404.08
2022-07-30T10:50:22.494Z,13331.65
2022-07-30T10:52:57.612Z,13383.83
2022-07-30T10:55:37.285Z,13332.19
2022-07-30T10:58:07.735Z,13332.15
2022-07-30T11:00:54.793Z,13336.75
2022-07-30T11:03:40.793Z,13428.16
2022-07-30T11:06:15.581Z,13388.16
2022-07-30T11:08:48.160Z,13322.93
2022-07-30T11:11:21.083Z,13323.60
2022-07-30T11:14:07.840Z,13325.33
2022-07-30T11:16:34.800Z,13301.94
2022-07-30T11:22:30.229Z,13369.38
2022-07-30T11:24:57.334Z,13358.19
2022-07-30T11:27:39.006Z,13372.74
2022-07-30T11:30:17.876Z,13368.83
2022-07-30T11:32:49.176Z,13346.86
2022-07-30T11:35:24.714Z,13333.81
2022-07-30T11:37:55.780Z,13318.57
2022-07-30T11:40:26.170Z,13321.01
2022-07-30T11:43:19.190Z,13305.67
2022-07-30T11:46:16.231Z,13311.58
2022-07-30T11:48:56.831Z,13310.65
2022-07-30T11:51:25.868Z,13324.97
2022-07-30T11:54:08.060Z,13340.26
2022-07-30T11:56:34.842Z,13347.00
2022-07-30T11:59:10.299Z,13325.60
2022-07-30T12:01:37.017Z,13333.17
2022-07-30T12:04:06.309Z,13318.92
2022-07-30T12:06:33.076Z,13346.92
2022-07-30T12:08:59.908Z,13338.14
2022-07-30T12:11:33.686Z,13320.89
2022-07-30T12:14:01.924Z,13328.83
2022-07-30T12:16:30.395Z,13313.45
2022-07-30T12:19:04.864Z,13313.71
2022-07-30T12:21:32.215Z,13330.33
2022-07-30T12:24:01.774Z,13331.52
2022-07-30T12:26:33.439Z,13343.23
2022-07-30T12:29:07.157Z,13334.76
2022-07-30T12:31:34.066Z,13352.72
2022-07-30T12:34:05.071Z,13346.81
2022-07-30T12:36:36.342Z,13334.70
2022-07-30T12:39:05.166Z,13325.21
2022-07-30T12:41:46.270Z,13340.26
2022-07-30T12:44:36.112Z,13355.64
2022-07-30T12:47:05.493Z,13338.05
2022-07-30T12:49:36.594Z,13350.62
2022-07-30T12:52:32.487Z,13337.00
2022-07-30T12:55:01.796Z,13358.88
2022-07-30T12:57:48.869Z,13345.63
2022-07-30T13:00:15.668Z,13386.43
2022-07-30T13:02:42.375Z,13381.04
2022-07-30T13:05:10.797Z,13368.40
2022-07-30T13:07:59.347Z,13349.10
2022-07-30T13:10:30.751Z,13363.41
2022-07-30T13:12:58.556Z,13394.87
2022-07-30T13:15:27.055Z,13371.12
2022-07-30T13:17:53.759Z,13361.54
2022-07-30T13:20:20.529Z,13361.31
2022-07-30T13:22:47.275Z,13352.37
2022-07-30T13:25:14.749Z,13346.80
2022-07-30T13:27:41.443Z,13333.80
2022-07-30T13:30:08.921Z,13339.32
2022-07-30T13:32:35.700Z,13340.58
2022-07-30T13:35:02.425Z,13343.01
2022-07-30T13:37:38.073Z,13338.51
2022-07-30T13:40:06.407Z,13368.74
2022-07-30T13:42:33.643Z,13379.52
2022-07-30T13:45:00.353Z,13364.70
2022-07-30T13:47:27.084Z,13340.07
2022-07-30T13:49:53.770Z,13345.13
2022-07-30T13:52:20.614Z,13356.62
2022-07-30T13:54:47.259Z,13360.19
2022-07-30T13:57:13.990Z,13364.59
2022-07-30T13:59:40.696Z,13374.62
2022-07-30T14:02:08.276Z,13383.66
2022-07-30T14:04:34.975Z,13364.75
2022-07-30T14:07:01.889Z,13368.19
2022-07-30T14:09:28.809Z,13387.52
2022-07-30T14:11:55.518Z,13387.02
2022-07-30T14:14:22.248Z,13357.34
2022-07-30T14:16:50.178Z,13374.91
2022-07-30T14:19:24.240Z,13398.39
2022-07-30T14:21:52.805Z,13369.43
2022-07-30T14:24:20.685Z,13346.89
2022-07-30T14:26:53.246Z,13365.09
2022-07-30T14:29:22.645Z,13325.94
2022-07-30T14:31:49.299Z,13317.65
2022-07-30T14:34:16.067Z,13347.47
2022-07-30T14:36:43.025Z,13315.17
2022-07-30T14:39:09.733Z,13354.29
2022-07-30T14:41:36.799Z,13360.63
2022-07-30T14:44:03.479Z,13390.83
2022-07-30T14:46:30.228Z,13381.58
2022-07-30T14:48:57.076Z,13378.20
2022-07-30T14:51:26.631Z,13391.65
2022-07-30T14:53:54.392Z,13376.06
2022-07-30T14:56:21.560Z,13400.53
2022-07-30T14:58:48.221Z,13395.16
2022-07-30T15:01:16.325Z,13379.46
2022-07-30T15:03:45.354Z,13391.10
2022-07-30T15:06:12.644Z,13383.46
2022-07-30T15:08:39.650Z,13378.76
2022-07-30T15:11:08.191Z,13372.16
2022-07-30T15:13:36.765Z,13392.56
2022-07-30T15:16:03.805Z,13385.37
2022-07-30T15:18:30.487Z,13377.38
2022-07-30T15:20:57.251Z,13398.96
2022-07-30T15:23:23.890Z,13417.85
2022-07-30T15:25:50.559Z,13405.97
2022-07-30T15:28:17.263Z,13402.42
2022-07-30T15:30:43.984Z,13371.88
2022-07-30T15:33:11.077Z,13359.91
2022-07-30T15:35:39.765Z,13342.40
2022-07-30T15:38:06.508Z,13363.88
2022-07-30T15:40:33.221Z,13354.00
2022-07-30T15:42:59.893Z,13358.29
2022-07-30T15:45:26.679Z,13374.58
2022-07-30T15:47:53.443Z,13382.78
2022-07-30T15:50:20.150Z,13391.27
2022-07-30T15:52:46.846Z,13385.05
2022-07-30T15:55:13.594Z,13403.10
2022-07-30T15:57:41.907Z,13401.74
2022-07-30T16:00:10.178Z,13378.44
2022-07-30T16:02:37.296Z,13396.54
2022-07-30T16:05:04.692Z,13400.24
2022-07-30T16:07:31.599Z,13405.85
2022-07-30T16:09:58.270Z,13387.32
2022-07-30T16:12:25.075Z,13369.91
2022-07-30T16:14:51.769Z,13390.62
2022-07-30T16:17:18.471Z,13389.00
2022-07-30T16:19:45.339Z,13402.68
2022-07-30T16:22:15.093Z,13404.11
2022-07-30T16:24:48.956Z,13411.13
2022-07-30T16:27:17.163Z,13399.47
2022-07-30T16:29:44.179Z,13372.99
2022-07-30T16:32:10.916Z,13368.04
2022-07-30T16:34:37.571Z,13355.70
2022-07-30T16:37:04.569Z,13413.25
2022-07-30T16:39:31.261Z,13452.15
2022-07-30T16:41:58.005Z,13452.19
2022-07-30T16:44:24.837Z,13388.83
2022-07-30T16:46:51.500Z,13354.30
2022-07-30T16:49:18.302Z,13354.44
2022-07-30T16:51:45.001Z,13347.98
2022-07-30T16:54:11.740Z,13361.87
2022-07-30T16:56:38.374Z,13364.15
2022-07-30T16:59:05.081Z,13372.72
2022-07-30T17:01:31.794Z,13358.17
2022-07-30T17:03:58.506Z,13378.10
2022-07-30T17:06:25.262Z,13344.42
2022-07-30T17:08:52.021Z,13368.74
2022-07-30T17:11:46.168Z,13354.68
2022-07-30T17:14:05.454Z,13356.12
2022-07-30T17:16:32.104Z,13421.82
2022-07-30T17:18:58.755Z,13369.13
2022-07-30T17:21:25.422Z,13392.93
2022-07-30T17:23:52.238Z,13343.30
2022-07-30T17:26:19.005Z,13335.47
2022-07-30T17:28:45.693Z,13356.57
2022-07-30T17:31:12.480Z,13368.67
2022-07-30T17:33:39.281Z,13356.38
2022-07-30T17:36:06.135Z,13399.31
2022-07-30T17:38:32.804Z,13421.44
2022-07-30T17:40:59.534Z,13444.24
2022-07-30T17:43:26.253Z,13420.24
2022-07-30T17:45:52.938Z,13428.04
2022-07-30T17:48:19.597Z,13451.37
2022-07-30T17:50:46.425Z,13422.05
2022-07-30T17:53:13.110Z,13440.11
2022-07-30T17:55:39.750Z,13443.00
2022-07-30T17:58:06.456Z,13449.64
2022-07-30T18:00:40.079Z,13429.45
2022-07-30T18:03:06.834Z,13467.53
2022-07-30T18:05:33.502Z,13474.82
2022-07-30T18:08:00.157Z,13457.07
2022-07-30T18:10:26.815Z,13441.83
2022-07-30T18:12:53.615Z,13469.76
2022-07-30T18:15:20.717Z,13441.12
2022-07-30T18:17:47.507Z,13450.19
2022-07-30T18:20:14.495Z,13462.14
2022-07-30T18:22:41.672Z,13425.86
2022-07-30T18:25:18.112Z,13428.92
2022-07-30T18:27:47.646Z,13494.75
2022-07-30T18:30:14.735Z,13472.52
2022-07-30T18:32:41.460Z,13454.44
2022-07-30T18:35:13.642Z,13496.75
2022-07-30T18:37:42.130Z,13494.01
2022-07-30T18:40:09.604Z,13495.83
2022-07-30T18:42:36.332Z,13510.66
2022-07-30T18:45:03.757Z,13548.06
2022-07-30T18:47:30.427Z,13569.99
2022-07-30T18:49:57.198Z,13535.66
2022-07-30T18:52:23.963Z,13542.19
2022-07-30T18:54:50.618Z,13537.26
2022-07-30T18:57:17.270Z,13539.91
2022-07-30T18:59:43.952Z,13594.77
2022-07-30T19:02:10.688Z,13559.47
2022-07-30T19:04:37.426Z,13549.42
2022-07-30T19:07:04.069Z,13589.06
2022-07-30T19:09:30.759Z,13608.92
2022-07-30T19:11:57.906Z,13624.48
2022-07-30T19:14:24.555Z,13604.44
2022-07-30T19:16:51.337Z,13660.84
2022-07-30T19:19:18.540Z,13674.69
2022-07-30T19:21:45.303Z,13670.65
2022-07-30T19:24:12.656Z,13684.12
2022-07-30T19:26:39.671Z,13685.01
2022-07-30T19:29:07.595Z,13705.13
2022-07-30T19:31:34.586Z,13710.16
2022-07-30T19:34:01.457Z,13691.36
2022-07-30T19:36:28.114Z,13703.13
2022-07-30T19:38:54.767Z,13682.02
2022-07-30T19:41:21.448Z,13690.51
2022-07-30T19:43:55.690Z,13687.04
2022-07-30T19:46:24.555Z,13711.59
2022-07-30T19:48:51.366Z,13746.22
2022-07-30T19:51:20.185Z,13748.17
2022-07-30T19:53:47.766Z,13744.04
2022-07-30T19:56:14.581Z,13768.03
2022-07-30T19:58:41.479Z,13730.74
2022-07-30T20:01:09.972Z,13739.52
2022-07-30T20:03:37.120Z,13724.10
2022-07-30T20:06:04.532Z,13719.87
2022-07-30T20:08:38.262Z,13729.27
2022-07-30T20:11:06.075Z,13801.12
2022-07-30T20:16:21.206Z,13879.44
2022-07-30T20:18:48.253Z,13867.04
2022-07-30T20:21:16.704Z,13877.03
2022-07-30T20:23:45.005Z,13872.04
2022-07-30T20:26:13.627Z,13853.94
2022-07-30T20:28:41.867Z,13861.61
2022-07-30T20:31:08.737Z,13863.96
2022-07-30T20:33:39.140Z,13845.88
2022-07-30T20:36:10.094Z,13832.96
2022-07-30T20:38:38.771Z,13812.73
2022-07-30T20:41:09.971Z,13814.52
2022-07-30T20:43:46.144Z,13835.78
2022-07-30T20:46:19.965Z,13833.32
2022-07-30T20:48:46.918Z,13823.07
2022-07-30T20:51:14.065Z,13865.31
2022-07-30T20:53:45.226Z,13905.07
2022-07-30T20:56:13.252Z,13887.81
2022-07-30T20:58:40.797Z,13880.95
2022-07-30T21:01:07.956Z,13845.27
2022-07-30T21:03:42.564Z,13849.88
2022-07-30T21:06:15.033Z,13889.56
2022-07-30T21:08:41.969Z,13913.76
2022-07-30T21:11:09.733Z,13919.66
2022-07-30T21:13:37.091Z,13929.48
2022-07-30T21:16:04.386Z,13950.01
2022-07-30T21:18:42.911Z,13945.12
2022-07-30T21:21:16.764Z,13927.76
2022-07-30T21:23:44.734Z,13923.27
2022-07-30T21:26:13.582Z,13925.52
2022-07-30T21:28:41.072Z,13908.84
2022-07-30T21:31:07.876Z,13921.44
2022-07-30T21:33:36.503Z,13935.38
2022-07-30T21:36:04.238Z,13941.36
2022-07-30T21:38:31.082Z,13963.72
2022-07-30T21:40:58.932Z,13962.04
2022-07-30T21:43:30.056Z,13957.95
2022-07-30T21:45:59.234Z,13962.47
2022-07-30T21:48:26.711Z,13961.91
2022-07-30T21:50:54.953Z,13933.75
2022-07-30T21:53:29.832Z,13940.37
2022-07-30T21:56:09.110Z,13923.34
2022-07-30T21:58:35.908Z,13915.20
2022-07-30T22:01:17.364Z,13892.08
2022-07-30T22:04:03.875Z,13903.44
2022-07-30T22:06:39.539Z,13885.14
2022-07-30T22:09:18.273Z,13923.68
2022-07-30T22:11:56.822Z,13956.90
2022-07-30T22:14:27.999Z,13971.76
2022-07-30T22:16:55.717Z,13953.79
2022-07-30T22:19:23.041Z,13967.17
2022-07-30T22:21:50.987Z,13956.12
2022-07-30T22:24:32.148Z,13960.88
2022-07-30T22:27:01.723Z,13942.76
2022-07-30T22:29:37.813Z,13942.50
2022-07-30T22:32:05.186Z,13949.70
2022-07-30T22:34:32.564Z,13948.32
2022-07-30T22:36:59.318Z,13934.11
2022-07-30T22:39:32.109Z,13960.68
2022-07-30T22:42:12.932Z,13954.27
2022-07-30T22:44:39.661Z,13976.06
2022-07-30T22:47:21.742Z,13988.82
2022-07-30T22:49:59.184Z,13955.97
2022-07-30T22:52:27.693Z,13965.49
2022-07-30T22:54:55.344Z,13935.38
2022-07-30T22:57:22.856Z,13944.67
2022-07-30T22:59:59.996Z,13936.44
2022-07-30T23:02:28.062Z,13912.09
2022-07-30T23:04:56.273Z,13914.85
2022-07-30T23:07:23.351Z,13934.45
2022-07-30T23:09:51.909Z,13968.44
2022-07-30T23:12:15.971Z,13862.00
2022-07-30T23:12:20.426Z,13945.04
2022-07-30T23:14:47.947Z,13956.00
2022-07-30T23:17:15.269Z,13995.94
2022-07-30T23:19:41.965Z,13975.07
2022-07-30T23:22:08.704Z,13960.52
2022-07-30T23:24:35.496Z,13983.04
2022-07-30T23:27:02.569Z,13990.96
2022-07-30T23:29:29.594Z,13986.67
2022-07-30T23:31:56.505Z,14010.41
2022-07-30T23:34:23.298Z,13995.01
2022-07-30T23:36:50.020Z,14002.01
2022-07-30T23:39:16.817Z,14001.70
2022-07-30T23:41:43.525Z,14007.34
2022-07-30T23:44:10.315Z,13975.17
2022-07-30T23:46:37.626Z,13977.02
2022-07-30T23:49:04.837Z,14002.04
2022-07-30T23:51:33.445Z,14013.67
2022-07-30T23:54:01.362Z,13990.76
2022-07-30T23:56:28.816Z,13984.49
2022-07-30T23:58:55.714Z,13993.66
